Time;durP1;ratioP1;P1;durP2;ratioP2;P2;SDS_P1;SDS_P2;PMS_P1;PMS_P2;Temp;Humidity;BMP_temperature;BMP_pressure;BME280_temperature;BME280_humidity;BME280_pressure;Samples;Min_cycle;Max_cycle;Signal;HPM_P1;HPM_P2
2023/12/09 00:00:48;;;;;;;26.27;11.53;;;2.70;99.90;;;;;;4907674;28;20207;-68
2023/12/09 00:03:15;;;;;;;23.90;11.93;;;2.70;99.90;;;;;;4942460;28;20207;-68
2023/12/09 00:05:42;;;;;;;26.93;12.57;;;2.70;99.90;;;;;;4937998;28;20427;-68
2023/12/09 00:08:09;;;;;;;22.93;11.47;;;2.80;99.90;;;;;;4946363;28;20742;-68
2023/12/09 00:10:36;;;;;;;23.57;12.57;;;2.70;99.90;;;;;;4950550;28;20208;-68
2023/12/09 00:13:04;;;;;;;28.90;12.70;;;2.80;99.90;;;;;;4957910;28;20411;-68
2023/12/09 00:15:32;;;;;;;28.47;13.43;;;2.80;99.90;;;;;;4921168;28;20236;-68
2023/12/09 00:17:59;;;;;;;22.67;11.80;;;2.70;99.90;;;;;;4935557;28;20211;-68
2023/12/09 00:20:26;;;;;;;24.80;12.40;;;2.80;99.90;;;;;;4939587;28;20199;-68
2023/12/09 00:22:53;;;;;;;26.37;12.13;;;3.10;99.90;;;;;;4940312;28;20234;-68
2023/12/09 00:25:20;;;;;;;25.97;12.60;;;2.80;99.90;;;;;;4940589;28;20204;-68
2023/12/09 00:27:46;;;;;;;21.87;12.23;;;2.80;99.90;;;;;;4946776;28;20703;-67
2023/12/09 00:30:13;;;;;;;27.80;11.47;;;2.90;99.90;;;;;;4914823;28;21679;-68
2023/12/09 00:32:42;;;;;;;23.57;11.77;;;2.90;99.90;;;;;;4954006;28;20683;-67
2023/12/09 00:35:10;;;;;;;23.37;11.97;;;3.00;99.90;;;;;;4938476;28;20575;-67
2023/12/09 00:37:38;;;;;;;25.30;12.47;;;2.90;99.90;;;;;;4929073;28;20318;-67
2023/12/09 00:40:06;;;;;;;26.20;12.50;;;3.00;99.90;;;;;;4938681;28;20845;-67
2023/12/09 00:42:33;;;;;;;29.40;12.73;;;3.00;99.90;;;;;;4948366;28;20208;-68
2023/12/09 00:45:00;;;;;;;23.87;12.70;;;3.00;99.90;;;;;;4951446;28;20200;-68
2023/12/09 00:47:27;;;;;;;24.67;12.83;;;3.00;99.90;;;;;;4914164;28;20454;-68
2023/12/09 00:49:55;;;;;;;27.27;11.70;;;2.70;99.90;;;;;;4939009;28;20231;-68
2023/12/09 00:52:22;;;;;;;31.27;12.70;;;3.20;99.90;;;;;;4936813;28;20219;-68
2023/12/09 00:54:49;;;;;;;32.50;13.30;;;3.20;99.90;;;;;;4951483;28;20661;-67
2023/12/09 00:57:16;;;;;;;21.83;11.20;;;3.10;99.90;;;;;;4931807;28;20228;-68
2023/12/09 00:59:43;;;;;;;29.00;12.23;;;3.70;99.90;;;;;;4954888;28;20291;-68
2023/12/09 01:02:09;;;;;;;31.53;13.17;;;3.10;99.90;;;;;;4893415;28;20226;-68
2023/12/09 01:04:36;;;;;;;29.83;12.13;;;3.20;99.90;;;;;;4951202;28;20575;-67
2023/12/09 01:07:05;;;;;;;35.83;14.67;;;3.60;99.90;;;;;;4922626;28;20203;-67
2023/12/09 01:09:32;;;;;;;26.40;12.43;;;0.90;99.90;;;;;;4934826;28;20336;-67
2023/12/09 01:11:59;;;;;;;32.63;14.33;;;3.50;99.90;;;;;;4937450;28;22576;-68
2023/12/09 01:14:26;;;;;;;36.13;14.40;;;;;;;;;;4952971;28;20208;-67
2023/12/09 01:16:53;;;;;;;32.73;13.43;;;1.40;99.90;;;;;;4910973;28;20415;-68
2023/12/09 01:19:19;;;;;;;32.87;13.90;;;3.60;99.90;;;;;;4947902;28;22005;-67
2023/12/09 01:21:46;;;;;;;29.27;14.60;;;3.60;99.90;;;;;;4943140;28;20527;-67
2023/12/09 01:24:15;;;;;;;35.93;14.97;;;3.70;99.90;;;;;;4941993;28;20221;-67
2023/12/09 01:26:40;;;;;;;53.83;16.10;;;3.70;99.90;;;;;;4948795;28;20196;-67
2023/12/09 01:29:07;;;;;;;32.10;13.27;;;3.70;99.90;;;;;;4942590;28;20341;-68
2023/12/09 01:31:35;;;;;;;28.47;12.83;;;4.10;99.90;;;;;;4942105;28;20206;-68
2023/12/09 01:34:02;;;;;;;35.37;15.73;;;3.70;99.90;;;;;;4925073;28;20746;-67
2023/12/09 01:36:29;;;;;;;36.50;13.83;;;3.70;99.90;;;;;;4952150;28;20669;-67
2023/12/09 01:38:55;;;;;;;31.10;13.93;;;3.80;99.90;;;;;;4930406;28;20222;-68
2023/12/09 01:41:24;;;;;;;41.23;16.07;;;3.80;99.90;;;;;;4956041;28;20200;-68
2023/12/09 01:43:51;;;;;;;32.37;13.67;;;3.90;99.90;;;;;;4938386;28;20226;-68
2023/12/09 01:46:19;;;;;;;35.13;14.13;;;3.50;99.90;;;;;;4948240;28;20203;-68
2023/12/09 01:48:47;;;;;;;41.43;14.40;;;3.50;99.90;;;;;;4899651;28;20263;-67
2023/12/09 01:51:17;;;;;;;33.00;14.37;;;3.70;99.90;;;;;;4953876;28;20311;-68
2023/12/09 01:53:44;;;;;;;32.47;13.00;;;3.70;99.90;;;;;;4937098;28;20307;-67
2023/12/09 01:56:13;;;;;;;28.87;13.67;;;3.70;99.90;;;;;;4935650;28;20231;-68
2023/12/09 01:58:42;;;;;;;25.33;13.10;;;3.70;99.90;;;;;;4949916;28;20206;-68
2023/12/09 02:01:09;;;;;;;31.93;14.77;;;3.90;99.90;;;;;;4947016;28;20912;-68
2023/12/09 02:03:37;;;;;;;31.73;13.67;;;3.90;99.90;;;;;;4910505;28;20203;-67
2023/12/09 02:06:04;;;;;;;29.03;13.63;;;4.00;99.90;;;;;;4953256;28;20195;-68
2023/12/09 02:08:31;;;;;;;27.60;13.10;;;3.90;99.90;;;;;;4958564;28;20210;-68
2023/12/09 02:11:18;;;;;;;32.63;13.70;;;3.90;99.90;;;;;;4940634;28;20424;-68
2023/12/09 02:13:56;;;;;;;35.40;12.87;;;3.90;99.90;;;;;;4956678;28;20205;-68
2023/12/09 02:16:28;;;;;;;33.30;14.60;;;3.80;99.90;;;;;;4944647;28;20229;-68
2023/12/09 02:18:58;;;;;;;34.50;13.13;;;3.70;99.90;;;;;;4908122;28;20418;-68
2023/12/09 02:21:25;;;;;;;33.87;13.43;;;3.70;99.90;;;;;;4959968;28;20677;-68
2023/12/09 02:23:53;;;;;;;26.60;12.90;;;3.70;99.90;;;;;;4959671;28;20314;-68
2023/12/09 02:26:25;;;;;;;26.47;12.63;;;3.70;99.90;;;;;;4941039;28;20690;-68
2023/12/09 02:28:57;;;;;;;31.80;13.27;;;3.80;99.90;;;;;;4949279;28;20215;-68
2023/12/09 02:31:31;;;;;;;34.40;14.13;;;3.70;99.90;;;;;;4942055;28;20764;-68
2023/12/09 02:34:00;;;;;;;31.40;14.43;;;3.80;99.90;;;;;;4904568;28;20544;-68
2023/12/09 02:36:29;;;;;;;37.33;14.10;;;3.80;99.90;;;;;;4954217;28;20343;-68
2023/12/09 02:38:58;;;;;;;35.93;13.50;;;3.40;99.90;;;;;;4956339;28;20197;-68
2023/12/09 02:41:26;;;;;;;28.77;13.77;;;3.80;99.90;;;;;;4940976;28;20199;-68
2023/12/09 02:43:53;;;;;;;31.43;13.13;;;3.80;99.90;;;;;;4951973;28;20414;-67
2023/12/09 02:46:20;;;;;;;30.27;13.77;;;3.80;99.90;;;;;;4941722;28;20228;-68
2023/12/09 02:48:47;;;;;;;43.90;14.03;;;3.80;99.90;;;;;;4906449;28;20238;-67
2023/12/09 02:51:14;;;;;;;37.40;15.20;;;3.80;99.90;;;;;;4949292;28;20240;-68
2023/12/09 02:53:41;;;;;;;31.40;13.37;;;3.90;99.90;;;;;;4957310;28;21003;-68
2023/12/09 02:56:10;;;;;;;29.60;13.57;;;3.80;99.90;;;;;;4935220;28;20640;-68
2023/12/09 02:58:37;;;;;;;30.27;13.37;;;3.00;99.90;;;;;;4955391;28;20498;-68
2023/12/09 03:01:04;;;;;;;32.47;14.60;;;3.80;99.90;;;;;;4939680;28;20214;-68
2023/12/09 03:03:31;;;;;;;41.43;14.77;;;3.80;99.90;;;;;;4915944;28;20203;-68
2023/12/09 03:05:58;;;;;;;33.90;13.83;;;3.70;99.90;;;;;;4942794;28;20199;-68
2023/12/09 03:08:25;;;;;;;28.13;14.20;;;3.80;99.90;;;;;;4958748;28;20199;-68
2023/12/09 03:10:52;;;;;;;36.30;14.40;;;3.80;99.90;;;;;;4941172;28;20226;-68
2023/12/09 03:13:20;;;;;;;32.70;15.90;;;3.80;99.90;;;;;;4962681;28;20229;-68
2023/12/09 03:15:47;;;;;;;29.37;14.73;;;3.80;99.90;;;;;;4948601;28;20422;-68
2023/12/09 03:18:14;;;;;;;34.67;14.63;;;3.90;99.90;;;;;;4956430;28;20227;-67
2023/12/09 03:20:41;;;;;;;30.00;14.17;;;3.90;99.90;;;;;;4903079;28;20211;-68
2023/12/09 03:23:08;;;;;;;32.13;14.53;;;3.90;99.90;;;;;;4943946;28;20493;-68
2023/12/09 03:25:35;;;;;;;33.80;14.40;;;3.90;99.90;;;;;;4942324;28;20847;-68
2023/12/09 03:28:02;;;;;;;36.87;14.80;;;3.90;99.90;;;;;;4938038;28;21601;-68
2023/12/09 03:30:30;;;;;;;35.20;15.83;;;4.00;99.90;;;;;;4955123;28;20652;-68
2023/12/09 03:32:57;;;;;;;32.47;14.83;;;4.00;99.90;;;;;;4939337;28;20208;-68
2023/12/09 03:35:24;;;;;;;28.40;13.73;;;4.00;99.90;;;;;;4911808;28;20208;-68
2023/12/09 03:37:51;;;;;;;33.70;15.50;;;3.90;99.90;;;;;;4933948;28;20555;-68
2023/12/09 03:40:18;;;;;;;32.43;13.77;;;3.90;99.90;;;;;;4947731;28;20510;-68
2023/12/09 03:42:45;;;;;;;28.27;14.10;;;3.60;99.90;;;;;;4937962;28;20226;-67
2023/12/09 03:45:12;;;;;;;39.50;13.93;;;3.70;99.90;;;;;;4958536;28;20204;-68
2023/12/09 03:47:40;;;;;;;33.57;13.13;;;3.80;99.90;;;;;;4944687;28;20211;-68
2023/12/09 03:50:08;;;;;;;31.17;13.77;;;3.80;99.90;;;;;;4951449;28;20237;-68
2023/12/09 03:52:35;;;;;;;32.17;14.93;;;;;;;;;;4910456;28;20219;-68
2023/12/09 03:55:03;;;;;;;25.57;14.23;;;4.00;99.90;;;;;;4941995;28;21129;-68
2023/12/09 03:57:30;;;;;;;31.53;15.43;;;3.90;99.90;;;;;;4959209;28;20529;-68
2023/12/09 03:59:57;;;;;;;35.40;14.73;;;4.50;99.90;;;;;;4936206;28;20203;-68
2023/12/09 04:02:24;;;;;;;30.30;13.97;;;4.10;99.90;;;;;;4938786;28;20838;-68
2023/12/09 04:04:52;;;;;;;32.97;15.17;;;4.10;99.90;;;;;;4946828;28;20228;-68
2023/12/09 04:07:19;;;;;;;33.50;15.20;;;4.20;99.90;;;;;;4907369;28;20855;-68
2023/12/09 04:09:46;;;;;;;36.80;14.77;;;4.30;99.90;;;;;;4953463;28;20207;-68
2023/12/09 04:12:13;;;;;;;32.10;15.30;;;4.80;99.90;;;;;;4949298;28;20500;-68
2023/12/09 04:14:40;;;;;;;38.00;14.80;;;4.30;99.90;;;;;;4936258;28;20204;-68
2023/12/09 04:17:07;;;;;;;29.87;14.83;;;4.30;99.90;;;;;;4936088;28;20829;-68
2023/12/09 04:19:34;;;;;;;44.93;16.00;;;4.40;99.90;;;;;;4938195;28;20342;-68
2023/12/09 04:22:02;;;;;;;41.03;15.47;;;4.40;99.90;;;;;;4911655;28;20224;-68
2023/12/09 04:24:29;;;;;;;30.70;14.50;;;4.40;99.90;;;;;;4942907;28;21015;-68
2023/12/09 04:26:56;;;;;;;37.60;14.93;;;4.30;99.90;;;;;;4947466;28;20235;-68
2023/12/09 04:29:23;;;;;;;40.33;16.07;;;4.50;99.90;;;;;;4939156;28;20211;-68
2023/12/09 04:31:50;;;;;;;30.03;14.83;;;4.30;99.90;;;;;;4956980;28;20214;-68
2023/12/09 04:34:17;;;;;;;34.90;14.57;;;4.40;99.90;;;;;;4942066;28;20227;-68
2023/12/09 04:36:44;;;;;;;38.20;15.10;;;4.30;99.90;;;;;;4919809;28;20716;-68
2023/12/09 04:39:12;;;;;;;37.33;14.43;;;4.20;99.90;;;;;;4944210;28;20214;-68
2023/12/09 04:41:39;;;;;;;49.13;15.00;;;4.20;99.90;;;;;;4949150;28;20625;-68
2023/12/09 04:44:06;;;;;;;36.03;14.80;;;4.20;99.90;;;;;;4946504;28;20200;-68
2023/12/09 04:46:33;;;;;;;33.33;14.00;;;4.30;99.90;;;;;;4942913;28;20293;-68
2023/12/09 04:48:59;;;;;;;26.97;14.43;;;4.30;99.90;;;;;;4942211;28;20248;-68
2023/12/09 04:51:27;;;;;;;28.50;15.03;;;4.20;99.90;;;;;;4953768;28;20200;-68
2023/12/09 04:53:54;;;;;;;35.43;15.20;;;4.20;99.90;;;;;;4916219;28;20259;-68
2023/12/09 04:56:22;;;;;;;31.30;13.60;;;4.20;99.90;;;;;;4945540;28;20434;-68
2023/12/09 04:58:49;;;;;;;27.90;12.90;;;4.20;99.90;;;;;;4953791;28;20220;-68
2023/12/09 05:01:16;;;;;;;29.97;14.57;;;4.20;99.90;;;;;;4941184;28;20509;-68
2023/12/09 05:03:43;;;;;;;27.50;13.70;;;4.20;99.90;;;;;;4936682;28;20204;-68
2023/12/09 05:06:10;;;;;;;30.17;13.57;;;4.20;99.90;;;;;;4951342;28;20200;-68
2023/12/09 05:08:38;;;;;;;24.10;13.23;;;4.20;99.90;;;;;;4916983;28;20203;-68
2023/12/09 05:11:06;;;;;;;30.47;14.03;;;4.20;99.90;;;;;;4946388;28;20714;-68
2023/12/09 05:13:34;;;;;;;30.80;13.83;;;4.30;99.90;;;;;;4955549;28;21062;-68
2023/12/09 05:16:02;;;;;;;25.27;11.73;;;4.20;99.90;;;;;;4938669;28;20212;-68
2023/12/09 05:18:29;;;;;;;29.27;12.67;;;4.60;99.90;;;;;;4944068;28;20231;-68
2023/12/09 05:20:56;;;;;;;23.23;12.00;;;4.20;99.90;;;;;;4947551;28;20231;-68
2023/12/09 05:23:23;;;;;;;26.47;12.97;;;3.50;99.90;;;;;;4914314;28;20790;-68
2023/12/09 05:25:51;;;;;;;27.33;13.07;;;4.10;99.90;;;;;;4942330;28;20326;-68
2023/12/09 05:28:18;;;;;;;23.37;12.57;;;4.20;99.90;;;;;;4950846;28;20543;-68
2023/12/09 05:30:47;;;;;;;29.83;13.00;;;4.10;99.90;;;;;;4937145;28;20417;-68
2023/12/09 05:33:14;;;;;;;32.33;14.37;;;4.10;99.90;;;;;;4954799;28;20210;-68
2023/12/09 05:35:41;;;;;;;26.33;11.30;;;4.10;99.90;;;;;;4942544;28;20208;-68
2023/12/09 05:38:07;;;;;;;36.77;14.40;;;4.10;99.90;;;;;;4911920;28;20245;-68
2023/12/09 05:40:34;;;;;;;28.20;12.50;;;4.00;99.90;;;;;;4934541;28;20592;-68
2023/12/09 05:43:01;;;;;;;30.47;12.77;;;4.10;99.90;;;;;;4952252;28;20260;-68
2023/12/09 05:45:28;;;;;;;33.27;14.27;;;4.00;99.90;;;;;;4939647;28;20608;-68
2023/12/09 05:47:57;;;;;;;28.37;13.33;;;4.10;99.90;;;;;;4942724;28;20540;-68
2023/12/09 05:50:24;;;;;;;29.60;13.03;;;4.10;99.90;;;;;;4949181;28;20699;-68
2023/12/09 05:52:51;;;;;;;26.27;12.37;;;4.20;99.90;;;;;;4906600;28;21576;-68
2023/12/09 05:55:18;;;;;;;27.67;12.90;;;4.10;99.90;;;;;;4954719;28;20202;-68
2023/12/09 05:57:45;;;;;;;27.73;13.33;;;4.10;99.90;;;;;;4935023;28;21109;-68
2023/12/09 06:00:13;;;;;;;22.17;12.40;;;4.20;99.90;;;;;;4944073;28;20677;-68
2023/12/09 06:02:41;;;;;;;32.13;12.50;;;4.10;99.90;;;;;;4935600;28;20890;-67
2023/12/09 06:05:10;;;;;;;23.33;12.43;;;4.10;99.90;;;;;;4949165;28;20246;-68
2023/12/09 06:07:37;;;;;;;33.50;13.07;;;4.10;99.90;;;;;;4909624;28;20235;-68
2023/12/09 06:10:05;;;;;;;22.27;10.67;;;4.20;99.90;;;;;;4940747;28;20203;-68
2023/12/09 06:12:32;;;;;;;32.07;13.30;;;4.20;99.90;;;;;;4942988;28;20566;-68
2023/12/09 06:14:59;;;;;;;33.87;12.30;;;4.60;99.90;;;;;;4946259;28;20196;-68
2023/12/09 06:17:26;;;;;;;22.17;11.10;;;4.10;99.90;;;;;;4941545;28;20518;-68
2023/12/09 06:19:53;;;;;;;22.80;11.33;;;4.10;99.90;;;;;;4944525;28;20807;-68
2023/12/09 06:22:21;;;;;;;24.67;11.37;;;4.10;99.90;;;;;;4933334;28;20729;-68
2023/12/09 06:24:48;;;;;;;21.73;11.07;;;4.10;99.90;;;;;;4922636;28;20207;-68
2023/12/09 06:27:15;;;;;;;29.53;11.83;;;4.00;99.90;;;;;;4936768;28;20203;-68
2023/12/09 06:29:44;;;;;;;21.27;12.67;;;4.10;99.90;;;;;;4950053;28;24033;-68
2023/12/09 06:32:11;;;;;;;25.73;11.63;;;4.00;99.90;;;;;;4944153;28;20203;-68
2023/12/09 06:34:38;;;;;;;25.93;10.80;;;4.10;99.90;;;;;;4944406;28;20298;-68
2023/12/09 06:37:04;;;;;;;20.83;11.57;;;4.10;99.90;;;;;;4938320;28;20207;-68
2023/12/09 06:39:33;;;;;;;27.57;12.07;;;4.10;99.90;;;;;;4915822;28;20233;-68
2023/12/09 06:42:01;;;;;;;27.87;10.77;;;4.10;99.90;;;;;;4945581;28;20204;-69
2023/12/09 06:44:28;;;;;;;22.83;11.00;;;4.10;99.90;;;;;;4953833;28;20526;-68
2023/12/09 06:46:54;;;;;;;17.03;9.93;;;4.10;99.90;;;;;;4952696;28;20234;-69
2023/12/09 06:49:21;;;;;;;20.40;10.80;;;4.20;99.90;;;;;;4941666;28;20232;-68
2023/12/09 06:51:49;;;;;;;20.13;11.00;;;4.10;99.90;;;;;;4937882;28;20430;-68
2023/12/09 06:54:16;;;;;;;23.10;10.43;;;4.20;99.90;;;;;;4917411;28;20204;-69
2023/12/09 06:56:45;;;;;;;18.00;9.73;;;4.10;99.90;;;;;;4946678;28;20289;-69
2023/12/09 06:59:12;;;;;;;26.07;10.43;;;4.20;99.90;;;;;;4952700;28;20231;-68
2023/12/09 07:01:38;;;;;;;22.30;11.30;;;4.10;99.90;;;;;;4943294;28;20204;-68
2023/12/09 07:04:05;;;;;;;21.13;9.93;;;4.10;99.90;;;;;;4940191;28;20611;-68
2023/12/09 07:06:32;;;;;;;20.50;10.03;;;4.20;99.90;;;;;;4952449;28;20675;-68
2023/12/09 07:08:59;;;;;;;16.07;9.17;;;4.20;99.90;;;;;;4916198;28;20487;-69
2023/12/09 07:11:26;;;;;;;20.17;9.90;;;4.20;99.90;;;;;;4951792;28;20196;-68
2023/12/09 07:13:55;;;;;;;27.33;10.27;;;4.20;99.90;;;;;;4948229;28;21343;-68
2023/12/09 07:16:21;;;;;;;17.27;9.23;;;4.20;99.90;;;;;;4934285;28;20231;-68
2023/12/09 07:18:50;;;;;;;27.23;9.57;;;4.20;99.90;;;;;;4934332;28;20238;-68
2023/12/09 07:21:17;;;;;;;26.10;9.30;;;4.20;99.90;;;;;;4943928;28;20204;-68
2023/12/09 07:23:45;;;;;;;13.13;8.30;;;4.20;99.90;;;;;;4935627;28;20308;-68
2023/12/09 07:26:13;;;;;;;22.47;9.33;;;4.10;99.90;;;;;;4914230;28;20293;-68
2023/12/09 07:28:40;;;;;;;15.67;9.37;;;;;;;;;;4951465;28;20223;-68
2023/12/09 07:31:08;;;;;;;16.27;8.07;;;4.20;99.90;;;;;;4942466;28;20314;-68
2023/12/09 07:33:35;;;;;;;21.03;9.03;;;4.20;99.90;;;;;;4947219;28;20327;-68
2023/12/09 07:36:02;;;;;;;20.57;9.33;;;3.90;99.90;;;;;;4952614;28;20209;-68
2023/12/09 07:38:29;;;;;;;25.97;8.33;;;4.10;99.90;;;;;;4943626;28;20238;-68
2023/12/09 07:40:56;;;;;;;12.10;8.13;;;4.10;99.90;;;;;;4914761;28;20204;-68
2023/12/09 07:43:22;;;;;;;15.97;8.57;;;4.10;99.90;;;;;;4946032;28;20208;-68
2023/12/09 07:45:49;;;;;;;19.13;8.97;;;4.20;99.90;;;;;;4944650;28;20597;-68
2023/12/09 07:48:18;;;;;;;15.87;8.77;;;4.20;99.90;;;;;;4946980;28;20209;-68
2023/12/09 07:50:45;;;;;;;19.20;7.87;;;3.60;99.90;;;;;;4932175;28;20439;-68
2023/12/09 07:53:12;;;;;;;17.93;8.23;;;4.20;99.90;;;;;;4943180;28;20229;-68
2023/12/09 07:55:38;;;;;;;22.60;8.27;;;4.10;99.90;;;;;;4912337;28;20226;-68
2023/12/09 07:58:05;;;;;;;18.07;9.13;;;4.20;99.90;;;;;;4950178;28;21018;-68
2023/12/09 08:00:32;;;;;;;18.70;9.47;;;4.10;99.90;;;;;;4931018;28;21044;-68
2023/12/09 08:03:04;;;;;;;13.93;7.33;;;4.20;99.90;;;;;;4906326;28;20245;-68
2023/12/09 08:05:34;;;;;;;17.37;8.87;;;4.20;99.90;;;;;;4928450;28;20226;-68
2023/12/09 08:08:01;;;;;;;15.60;8.47;;;4.20;99.90;;;;;;4922895;28;20997;-68
2023/12/09 08:10:28;;;;;;;17.13;8.77;;;4.90;99.90;;;;;;4895410;28;20346;-69
2023/12/09 08:12:55;;;;;;;16.73;8.37;;;4.30;99.90;;;;;;4953787;28;20768;-68
2023/12/09 08:15:22;;;;;;;20.60;9.33;;;4.30;99.90;;;;;;4927534;28;20227;-68
2023/12/09 08:17:49;;;;;;;27.70;8.60;;;4.30;99.90;;;;;;4931983;28;20282;-69
2023/12/09 08:20:16;;;;;;;21.40;9.43;;;4.40;99.90;;;;;;4928048;28;20209;-68
2023/12/09 08:22:44;;;;;;;20.13;8.80;;;4.30;99.90;;;;;;4935692;28;20326;-68
2023/12/09 08:25:11;;;;;;;18.60;7.43;;;4.60;99.90;;;;;;4900202;28;20229;-69
2023/12/09 08:27:39;;;;;;;21.80;7.93;;;4.40;99.90;;;;;;4944486;28;20475;-68
2023/12/09 08:30:10;;;;;;;16.00;9.17;;;4.40;99.90;;;;;;4939564;28;20204;-68
2023/12/09 08:32:38;;;;;;;26.33;8.43;;;4.40;99.90;;;;;;4941274;28;20204;-68
2023/12/09 08:35:06;;;;;;;18.47;8.33;;;4.50;99.90;;;;;;4958795;28;20814;-68
2023/12/09 08:37:33;;;;;;;17.20;8.57;;;4.50;99.90;;;;;;4930353;28;20674;-69
2023/12/09 08:40:09;;;;;;;25.67;9.37;;;4.50;99.90;;;;;;4933919;28;20235;-68
2023/12/09 08:42:37;;;;;;;18.70;8.50;;;4.50;99.90;;;;;;4914559;28;20220;-68
2023/12/09 08:45:04;;;;;;;27.70;9.43;;;4.50;99.90;;;;;;4939443;28;20745;-68
2023/12/09 08:47:31;;;;;;;16.90;8.60;;;4.50;99.90;;;;;;4942998;28;20209;-68
2023/12/09 08:49:58;;;;;;;27.70;9.03;;;4.60;99.90;;;;;;4940387;28;20443;-68
2023/12/09 08:52:25;;;;;;;22.50;8.23;;;4.50;99.90;;;;;;4935338;28;20582;-68
2023/12/09 08:54:52;;;;;;;18.03;8.53;;;;;;;;;;4935671;28;20224;-68
2023/12/09 08:57:20;;;;;;;15.90;7.53;;;4.50;99.90;;;;;;4904185;28;20227;-68
2023/12/09 08:59:47;;;;;;;16.63;8.23;;;4.50;99.90;;;;;;4949774;28;20245;-68
2023/12/09 09:02:14;;;;;;;18.77;9.23;;;4.80;99.90;;;;;;4897698;28;20416;-68
2023/12/09 09:04:41;;;;;;;17.30;7.83;;;4.50;99.90;;;;;;4916540;28;20330;-68
2023/12/09 09:07:08;;;;;;;18.03;8.30;;;4.60;99.90;;;;;;4942476;28;20199;-69
2023/12/09 09:09:36;;;;;;;20.83;7.13;;;4.60;99.90;;;;;;4920683;28;20226;-68
2023/12/09 09:12:03;;;;;;;11.97;7.80;;;4.60;99.90;;;;;;4895862;28;20663;-69
2023/12/09 09:14:31;;;;;;;17.90;7.83;;;4.70;99.90;;;;;;4946365;28;20203;-68
2023/12/09 09:16:58;;;;;;;24.97;7.03;;;4.70;99.90;;;;;;4914325;28;20317;-69
2023/12/09 09:19:25;;;;;;;20.77;7.33;;;4.60;99.90;;;;;;4953983;28;20255;-68
2023/12/09 09:21:52;;;;;;;14.40;5.83;;;4.70;99.90;;;;;;4929336;28;23280;-67
2023/12/09 09:24:19;;;;;;;11.33;6.50;;;4.60;99.90;;;;;;4941284;28;20575;-68
2023/12/09 09:26:46;;;;;;;14.83;6.67;;;4.90;99.90;;;;;;4883859;28;21682;-67
2023/12/09 09:29:13;;;;;;;17.93;6.30;;;4.70;99.90;;;;;;4934040;28;20220;-68
2023/12/09 09:31:41;;;;;;;14.20;5.87;;;4.60;99.90;;;;;;4907112;28;20311;-68
2023/12/09 09:34:08;;;;;;;19.50;5.67;;;4.70;99.90;;;;;;4931891;28;20219;-68
2023/12/09 09:36:35;;;;;;;13.23;5.30;;;4.70;99.90;;;;;;4920766;28;20751;-68
2023/12/09 09:39:02;;;;;;;11.33;5.53;;;;;;;;;;4948403;28;20222;-68
2023/12/09 09:41:32;;;;;;;18.70;5.40;;;4.80;99.90;;;;;;4897151;28;20516;-68
2023/12/09 09:44:07;;;;;;;17.73;5.53;;;4.80;99.90;;;;;;4907558;28;20230;-68
2023/12/09 09:46:36;;;;;;;12.77;5.43;;;4.80;99.90;;;;;;4948120;28;20386;-68
2023/12/09 09:49:05;;;;;;;10.87;5.23;;;4.80;99.90;;;;;;4933200;28;20234;-67
2023/12/09 09:51:33;;;;;;;16.60;5.50;;;4.90;99.90;;;;;;4927468;28;20203;-69
2023/12/09 09:54:08;;;;;;;15.23;6.40;;;5.00;99.90;;;;;;4920209;28;20733;-68
2023/12/09 09:56:36;;;;;;;12.07;6.00;;;4.90;99.90;;;;;;4900517;28;20208;-68
2023/12/09 09:59:04;;;;;;;11.43;5.67;;;5.00;99.90;;;;;;4912140;28;20701;-68
2023/12/09 10:01:32;;;;;;;12.90;5.87;;;5.10;99.90;;;;;;4921677;28;20731;-68
2023/12/09 10:03:59;;;;;;;13.37;5.53;;;5.00;99.90;;;;;;4926767;28;20777;-68
2023/12/09 10:06:30;;;;;;;14.80;5.63;;;5.10;99.90;;;;;;4928280;28;20234;-68
2023/12/09 10:08:58;;;;;;;10.40;4.53;;;5.10;99.90;;;;;;4911897;28;20206;-68
2023/12/09 10:11:25;;;;;;;11.40;4.90;;;5.00;99.90;;;;;;4918255;28;20627;-68
2023/12/09 10:13:52;;;;;;;17.23;4.30;;;5.00;99.90;;;;;;4891304;28;20731;-68
2023/12/09 10:16:19;;;;;;;16.67;4.73;;;5.10;99.90;;;;;;4947808;28;20253;-68
2023/12/09 10:18:46;;;;;;;13.83;4.47;;;5.00;99.90;;;;;;4911969;28;20700;-68
2023/12/09 10:21:13;;;;;;;14.90;5.57;;;5.10;99.90;;;;;;4924264;28;20203;-68
2023/12/09 10:23:42;;;;;;;10.73;5.00;;;5.10;99.90;;;;;;4907953;28;20690;-68
2023/12/09 10:26:09;;;;;;;8.17;4.03;;;5.40;99.90;;;;;;4933034;28;20218;-68
2023/12/09 10:28:36;;;;;;;14.70;3.70;;;5.10;99.90;;;;;;4883122;28;21635;-68
2023/12/09 10:31:04;;;;;;;8.43;3.53;;;5.10;99.90;;;;;;4929647;28;20239;-69
2023/12/09 10:33:31;;;;;;;12.03;3.70;;;5.10;99.90;;;;;;4935368;28;20211;-68
2023/12/09 10:35:58;;;;;;;8.13;3.30;;;5.10;99.90;;;;;;4930846;28;20228;-68
2023/12/09 10:38:25;;;;;;;8.60;3.33;;;5.10;99.90;;;;;;4940953;28;20231;-68
2023/12/09 10:40:54;;;;;;;5.27;3.10;;;5.30;99.90;;;;;;4922147;28;20232;-68
2023/12/09 10:43:21;;;;;;;7.00;3.13;;;6.40;99.90;;;;;;4879491;28;20230;-68
2023/12/09 10:45:48;;;;;;;9.37;3.00;;;;;;;;;;4925325;28;20222;-68
2023/12/09 10:48:15;;;;;;;6.13;2.70;;;5.10;99.90;;;;;;4925217;28;20227;-69
2023/12/09 10:50:46;;;;;;;5.00;2.50;;;3.80;99.90;;;;;;4942589;28;20227;-68
2023/12/09 10:53:12;;;;;;;12.53;2.73;;;5.40;99.90;;;;;;4949459;28;20207;-68
2023/12/09 10:55:40;;;;;;;13.77;2.97;;;5.40;99.90;;;;;;4920141;28;20206;-69
2023/12/09 10:58:10;;;;;;;6.50;2.80;;;5.40;99.90;;;;;;4917223;28;20851;-68
2023/12/09 11:00:37;;;;;;;10.33;2.60;;;5.30;99.90;;;;;;4886899;28;20628;-68
2023/12/09 11:03:07;;;;;;;5.50;2.63;;;5.30;99.90;;;;;;4933792;28;20705;-68
2023/12/09 11:05:45;;;;;;;11.80;3.13;;;5.40;99.90;;;;;;4915435;28;20207;-69
2023/12/09 11:08:13;;;;;;;6.43;2.43;;;5.30;99.90;;;;;;4910616;28;20231;-68
2023/12/09 11:10:41;;;;;;;8.83;3.07;;;5.40;99.90;;;;;;4933419;28;20211;-68
2023/12/09 11:13:09;;;;;;;4.90;2.60;;;5.30;99.90;;;;;;4927807;28;20789;-68
2023/12/09 11:15:36;;;;;;;9.27;2.37;;;5.30;99.90;;;;;;4896639;28;20231;-68
2023/12/09 11:18:08;;;;;;;17.07;3.50;;;5.30;99.90;;;;;;4942725;28;20353;-68
2023/12/09 11:20:38;;;;;;;6.57;2.73;;;4.90;99.90;;;;;;4941918;28;20243;-68
2023/12/09 11:23:08;;;;;;;4.17;2.67;;;5.30;99.90;;;;;;4937760;28;20448;-69
2023/12/09 11:25:38;;;;;;;6.03;2.90;;;5.60;99.90;;;;;;4943917;28;20741;-69
2023/12/09 11:28:05;;;;;;;6.97;2.60;;;5.30;99.90;;;;;;4921964;28;20450;-69
2023/12/09 11:30:36;;;;;;;7.90;2.27;;;5.30;99.90;;;;;;4925239;28;20218;-68
2023/12/09 11:33:04;;;;;;;8.70;3.40;;;5.40;99.90;;;;;;4918305;28;20750;-68
2023/12/09 11:35:33;;;;;;;4.90;2.47;;;4.30;99.90;;;;;;4932463;28;20203;-68
2023/12/09 11:38:00;;;;;;;10.10;2.97;;;5.40;99.90;;;;;;4919372;28;20925;-68
2023/12/09 11:40:29;;;;;;;6.70;3.47;;;5.40;99.90;;;;;;4936677;28;20237;-69
2023/12/09 11:42:58;;;;;;;10.53;2.70;;;5.40;99.90;;;;;;4909649;28;20223;-68
2023/12/09 11:45:25;;;;;;;10.20;2.90;;;5.50;99.90;;;;;;4923889;28;20697;-69
2023/12/09 11:47:54;;;;;;;7.63;2.57;;;5.50;99.90;;;;;;4915809;28;20265;-68
2023/12/09 11:50:21;;;;;;;6.83;2.90;;;5.50;99.90;;;;;;4938220;28;20241;-68
2023/12/09 11:52:49;;;;;;;4.93;2.00;;;5.60;99.90;;;;;;4939927;28;20200;-69
2023/12/09 11:55:17;;;;;;;10.73;2.57;;;5.50;99.90;;;;;;4934322;28;20235;-69
2023/12/09 11:57:44;;;;;;;5.03;2.10;;;5.60;99.90;;;;;;4911630;28;20221;-69
2023/12/09 12:00:13;;;;;;;5.97;2.70;;;5.60;99.90;;;;;;4933371;28;20728;-69
2023/12/09 12:02:40;;;;;;;7.50;2.93;;;;;;;;;;4891132;28;20643;-69
2023/12/09 12:05:09;;;;;;;7.87;2.70;;;2.30;99.90;;;;;;4922725;28;20203;-68
2023/12/09 12:07:36;;;;;;;6.83;2.70;;;5.70;99.90;;;;;;4931787;28;20207;-68
2023/12/09 12:10:04;;;;;;;12.13;2.33;;;5.70;99.90;;;;;;4913889;28;20837;-69
2023/12/09 12:12:32;;;;;;;6.17;2.50;;;6.40;99.90;;;;;;4906747;28;20224;-68
2023/12/09 12:14:59;;;;;;;9.40;2.80;;;5.60;99.90;;;;;;4917880;28;20254;-68
2023/12/09 12:17:28;;;;;;;7.70;2.80;;;5.90;99.90;;;;;;4889312;28;20589;-68
2023/12/09 12:19:55;;;;;;;5.53;2.30;;;5.70;99.90;;;;;;4938372;28;20232;-68
2023/12/09 12:22:24;;;;;;;10.13;2.93;;;5.70;99.90;;;;;;4922903;28;20225;-68
2023/12/09 12:24:52;;;;;;;8.03;2.77;;;5.80;99.90;;;;;;4939010;28;20200;-68
2023/12/09 12:27:19;;;;;;;6.10;2.53;;;5.80;99.90;;;;;;4943916;28;20596;-69
2023/12/09 12:29:47;;;;;;;9.83;2.93;;;7.10;99.90;;;;;;4910081;28;20294;-68
2023/12/09 12:32:14;;;;;;;5.13;2.57;;;5.80;99.90;;;;;;4901667;28;20330;-68
2023/12/09 12:34:45;;;;;;;9.43;2.90;;;5.90;99.90;;;;;;4893458;28;20231;-68
2023/12/09 12:37:12;;;;;;;9.93;2.87;;;5.80;99.90;;;;;;4937741;28;20792;-68
2023/12/09 12:39:41;;;;;;;7.47;2.63;;;5.80;99.90;;;;;;4941046;28;20227;-68
2023/12/09 12:42:08;;;;;;;6.63;2.53;;;6.30;99.90;;;;;;4930698;28;20273;-68
2023/12/09 12:44:36;;;;;;;6.00;2.43;;;5.80;99.90;;;;;;4924321;28;20211;-68
2023/12/09 12:47:03;;;;;;;12.80;3.10;;;5.90;99.90;;;;;;4923653;28;25574;-68